Time;durP1;ratioP1;P1;durP2;ratioP2;P2;SDS_P1;SDS_P2;PMS_P1;PMS_P2;Temp;Humidity;BMP_temperature;BMP_pressure;BME280_temperature;BME280_humidity;BME280_pressure;Samples;Min_cycle;Max_cycle;Signal;HPM_P1;HPM_P2
2023/02/10 00:01:29;;;;;;;56.25;24.27;;;3.10;99.90;;;1.39;100.00;102516.66;5010023;28;20034;-72
2023/02/10 00:03:56;;;;;;;58.40;23.75;;;3.10;99.90;;;1.48;100.00;102522.38;5004473;28;20129;-73
2023/02/10 00:06:24;;;;;;;58.22;24.73;;;3.10;99.90;;;1.48;100.00;102528.59;5005924;28;20485;-72
2023/02/10 00:08:55;;;;;;;56.17;25.15;;;3.10;99.90;;;1.47;100.00;102526.03;5008268;28;20033;-72
2023/02/10 00:14:06;;;;;;;62.85;25.30;;;3.10;99.90;;;1.42;100.00;102535.25;4992809;28;20464;-72
2023/02/10 00:16:32;;;;;;;62.83;26.15;;;3.10;99.90;;;1.42;100.00;102529.03;5003486;28;20121;-72
2023/02/10 00:18:58;;;;;;;59.97;26.77;;;3.10;99.90;;;1.38;100.00;102533.78;5005235;28;20371;-72
2023/02/10 00:21:23;;;;;;;59.60;26.88;;;3.00;99.90;;;1.38;100.00;102536.47;5007285;28;20041;-72
2023/02/10 00:23:49;;;;;;;64.05;26.48;;;3.00;99.90;;;1.37;100.00;102536.59;5001780;28;20404;-73
2023/02/10 00:26:15;;;;;;;61.30;26.77;;;3.00;99.90;;;1.35;100.00;102533.16;4996583;28;20045;-72
2023/02/10 00:28:42;;;;;;;63.03;28.10;;;3.00;99.90;;;1.34;100.00;102537.66;5000770;28;20046;-73
2023/02/10 00:31:13;;;;;;;61.58;26.77;;;3.00;99.90;;;1.36;100.00;102546.47;5009043;28;20042;-73
2023/02/10 00:33:40;;;;;;;67.13;28.67;;;3.00;99.90;;;1.34;100.00;102534.97;5008905;28;20064;-72
2023/02/10 00:36:12;;;;;;;63.00;27.55;;;3.00;99.90;;;1.35;100.00;102546.59;5003739;28;20045;-73
2023/02/10 00:38:40;;;;;;;58.92;28.20;;;3.00;99.90;;;1.32;100.00;102538.72;4998349;28;20034;-72
2023/02/10 00:41:16;;;;;;;64.28;29.40;;;3.00;99.90;;;1.32;100.00;102553.03;4993306;28;20033;-72
2023/02/10 00:43:44;;;;;;;61.03;28.23;;;3.00;99.90;;;1.32;100.00;102552.16;5006903;28;20037;-72
2023/02/10 00:46:16;;;;;;;67.82;28.15;;;3.00;99.90;;;1.29;100.00;102551.41;5002347;28;20444;-72
2023/02/10 00:48:42;;;;;;;66.28;28.08;;;3.00;99.90;;;1.26;100.00;102550.78;5023498;28;20073;-72
2023/02/10 00:51:10;;;;;;;66.95;28.08;;;2.90;99.90;;;1.27;100.00;102557.91;4992298;28;20038;-72
2023/02/10 00:53:35;;;;;;;68.65;28.52;;;2.90;99.90;;;1.23;100.00;102556.41;5016047;28;20482;-72
2023/02/10 00:56:01;;;;;;;55.40;26.55;;;2.90;99.90;;;1.22;100.00;102558.22;5007635;28;20045;-72
2023/02/10 00:58:28;;;;;;;57.78;26.73;;;2.90;99.90;;;1.23;100.00;102553.69;5003362;28;20097;-73
2023/02/10 01:00:54;;;;;;;56.17;25.67;;;2.90;99.90;;;1.22;100.00;102560.91;4993509;28;20401;-72
2023/02/10 01:03:21;;;;;;;56.58;27.05;;;2.90;99.90;;;1.20;100.00;102560.16;4996078;28;20042;-72
2023/02/10 01:05:47;;;;;;;59.03;26.73;;;2.90;99.90;;;1.18;100.00;102559.41;5002649;28;20045;-73
2023/02/10 01:08:15;;;;;;;56.83;26.77;;;2.80;99.90;;;1.17;100.00;102557.69;5008431;28;22115;-73
2023/02/10 01:10:41;;;;;;;55.13;26.63;;;2.80;99.90;;;1.18;100.00;102559.41;5002351;28;20033;-73
2023/02/10 01:13:10;;;;;;;55.47;25.98;;;2.90;99.90;;;1.15;100.00;102562.31;4998296;28;20046;-74
2023/02/10 01:15:35;;;;;;;51.95;24.88;;;2.80;99.90;;;1.17;100.00;102563.06;5005032;28;20121;-73
2023/02/10 01:18:01;;;;;;;64.20;27.33;;;2.80;99.90;;;1.16;100.00;102564.03;5008564;28;20068;-73
2023/02/10 01:20:27;;;;;;;51.20;24.52;;;2.80;99.90;;;1.21;100.00;102564.56;4998100;28;20037;-74
2023/02/10 01:22:53;;;;;;;61.90;25.58;;;2.90;99.90;;;1.20;100.00;102562.84;4992988;28;20042;-72
2023/02/10 01:25:19;;;;;;;55.85;26.50;;;2.90;99.90;;;1.21;100.00;102558.34;5015654;28;20044;-72
2023/02/10 01:27:44;;;;;;;56.08;25.80;;;2.90;99.90;;;1.22;100.00;102566.28;5020340;28;20034;-72
2023/02/10 01:30:11;;;;;;;57.45;26.85;;;2.90;99.90;;;1.20;100.00;102573.59;5008118;28;20041;-72
2023/02/10 01:32:37;;;;;;;51.97;25.70;;;2.90;99.90;;;1.22;100.00;102577.03;4991116;28;20060;-72
2023/02/10 01:35:04;;;;;;;58.75;26.10;;;2.90;99.90;;;1.22;100.00;102582.41;5006809;28;20455;-72
2023/02/10 01:37:30;;;;;;;56.30;26.37;;;2.90;99.90;;;1.26;100.00;102577.69;5022729;28;20385;-72
2023/02/10 01:39:56;;;;;;;58.95;27.50;;;2.90;99.90;;;1.19;100.00;102569.19;5006917;28;20034;-72
2023/02/10 01:42:21;;;;;;;56.67;26.15;;;2.90;99.90;;;1.26;100.00;102569.63;4994150;28;20100;-73
2023/02/10 01:44:47;;;;;;;51.00;24.45;;;2.90;99.90;;;1.27;100.00;102572.19;4986357;28;20390;-72
2023/02/10 01:47:13;;;;;;;50.17;25.02;;;2.90;99.90;;;1.24;100.00;102560.81;5003047;28;20055;-72
2023/02/10 01:49:46;;;;;;;49.38;24.30;;;2.90;99.90;;;1.22;100.00;102566.28;5016384;28;20030;-72
2023/02/10 01:52:26;;;;;;;50.38;23.70;;;2.90;99.90;;;1.23;100.00;102564.47;5006860;28;20054;-72
2023/02/10 01:55:11;;;;;;;49.30;23.50;;;2.90;99.90;;;1.27;100.00;102558.72;5008099;28;20034;-72
2023/02/10 01:57:41;;;;;;;52.15;24.60;;;2.90;99.90;;;1.25;100.00;102557.97;4990678;28;20148;-72
2023/02/10 02:00:08;;;;;;;55.85;25.33;;;2.90;99.90;;;1.27;100.00;102558.72;5022631;28;20056;-72
2023/02/10 02:02:43;;;;;;;54.22;24.33;;;2.90;99.90;;;1.25;100.00;102552.59;5008201;28;20046;-72
2023/02/10 02:05:39;;;;;;;49.47;23.38;;;2.90;99.90;;;1.26;100.00;102550.78;5006687;28;20096;-72
2023/02/10 02:08:25;;;;;;;51.05;23.90;;;2.90;99.90;;;1.25;100.00;102547.22;5007862;28;20515;-72
2023/02/10 02:11:16;;;;;;;52.17;24.38;;;2.90;99.90;;;1.23;100.00;102546.47;4998201;28;20100;-73
2023/02/10 02:14:31;;;;;;;54.28;24.50;;;2.80;99.90;;;1.12;100.00;102555.31;5004963;28;20049;-72
2023/02/10 02:17:15;;;;;;;53.53;25.42;;;2.80;99.90;;;1.03;100.00;102555.06;5006210;28;20504;-72
2023/02/10 02:23:22;;;;;;;55.53;24.98;;;2.60;99.90;;;0.93;100.00;102561.09;5004010;28;20045;-72
2023/02/10 02:26:29;;;;;;;57.80;26.17;;;2.50;99.90;;;0.99;100.00;102566.06;5008756;28;20116;-72
2023/02/10 02:29:46;;;;;;;60.60;26.48;;;2.60;99.90;;;1.04;100.00;102567.56;5007570;28;20046;-73
2023/02/10 02:32:20;;;;;;;49.78;25.27;;;2.60;99.90;;;1.03;100.00;102564.03;5000489;28;20041;-73
2023/02/10 02:35:06;;;;;;;60.53;26.95;;;2.70;99.90;;;1.04;100.00;102565.75;5007944;28;20034;-72
2023/02/10 02:37:37;;;;;;;56.38;26.33;;;2.70;99.90;;;1.08;100.00;102559.19;5003962;28;20600;-72
2023/02/10 02:40:04;;;;;;;55.17;26.27;;;2.70;99.90;;;1.11;100.00;102566.19;5010635;28;20026;-72
2023/02/10 02:42:32;;;;;;;63.07;27.17;;;2.70;99.90;;;1.12;100.00;102573.28;5008933;28;20030;-72
2023/02/10 02:45:06;;;;;;;62.33;27.95;;;2.70;99.90;;;1.11;100.00;102568.88;4989843;28;20445;-72
2023/02/10 02:48:11;;;;;;;57.20;26.45;;;2.70;99.90;;;1.12;100.00;102567.91;5001425;28;20038;-72
2023/02/10 02:51:05;;;;;;;56.85;26.58;;;2.70;99.90;;;1.08;100.00;102558.34;5005769;28;20095;-72
2023/02/10 02:53:49;;;;;;;56.20;27.90;;;2.70;99.90;;;1.08;100.00;102569.09;5010930;28;20034;-72
2023/02/10 02:57:09;;;;;;;58.53;27.48;;;2.70;99.90;;;1.08;100.00;102561.03;4998979;28;20042;-72
2023/02/10 02:59:59;;;;;;;58.50;26.60;;;2.70;99.90;;;1.10;100.00;102562.63;4993477;28;20086;-72
2023/02/10 03:02:28;;;;;;;54.65;25.88;;;2.70;99.90;;;1.09;100.00;102570.81;5001766;28;20044;-72
2023/02/10 03:04:55;;;;;;;53.38;26.67;;;2.70;99.90;;;1.06;100.00;102565.63;5018798;28;20113;-72
2023/02/10 03:07:24;;;;;;;57.03;27.35;;;2.70;99.90;;;1.07;100.00;102562.84;5008101;28;20080;-72
2023/02/10 03:09:50;;;;;;;53.30;24.40;;;2.70;99.90;;;1.10;100.00;102564.47;4977867;28;20046;-72
2023/02/10 03:12:16;;;;;;;53.47;26.30;;;2.70;99.90;;;1.06;100.00;102560.25;5007152;28;20116;-73
2023/02/10 03:14:41;;;;;;;54.22;26.52;;;2.70;99.90;;;1.04;100.00;102559.50;5010526;28;20041;-72
2023/02/10 03:17:07;;;;;;;58.97;27.63;;;2.70;99.90;;;1.04;100.00;102551.41;5005962;28;20038;-72
2023/02/10 03:19:33;;;;;;;51.25;24.75;;;2.70;99.90;;;1.07;100.00;102548.53;5003644;28;20029;-73
2023/02/10 03:21:59;;;;;;;53.03;25.75;;;2.70;99.90;;;1.05;100.00;102553.16;5003859;28;20038;-73
2023/02/10 03:24:24;;;;;;;52.25;26.13;;;2.70;99.90;;;1.04;100.00;102551.41;5005029;28;20496;-73
2023/02/10 03:26:50;;;;;;;56.50;25.25;;;2.70;99.90;;;1.05;100.00;102559.41;5006956;28;20038;-73
2023/02/10 03:29:16;;;;;;;47.17;23.40;;;2.70;99.90;;;1.11;100.00;102558.13;5007729;28;20041;-73
2023/02/10 03:31:42;;;;;;;50.33;24.85;;;2.70;99.90;;;1.10;100.00;102557.25;5008857;28;20400;-73
2023/02/10 03:34:08;;;;;;;53.08;25.20;;;2.70;99.90;;;1.06;100.00;102554.88;5009083;28;20401;-73
2023/02/10 03:36:34;;;;;;;50.47;24.38;;;2.70;99.90;;;1.11;100.00;102567.03;5010200;28;20030;-73
2023/02/10 03:39:01;;;;;;;51.67;22.88;;;2.70;99.90;;;1.11;100.00;102569.72;5010827;28;20062;-73
2023/02/10 03:41:27;;;;;;;48.03;23.98;;;2.70;99.90;;;1.13;100.00;102572.31;5009980;28;20030;-73
2023/02/10 03:43:53;;;;;;;51.42;23.88;;;2.70;99.90;;;1.15;100.00;102581.13;5010396;28;20048;-73
2023/02/10 03:46:19;;;;;;;48.10;22.95;;;2.80;99.90;;;1.16;100.00;102572.09;5008928;28;20052;-73
2023/02/10 03:48:44;;;;;;;47.97;21.60;;;2.80;99.90;;;1.22;100.00;102581.56;5004160;28;20060;-73
2023/02/10 03:51:11;;;;;;;47.08;22.55;;;2.80;99.90;;;1.21;100.00;102578.00;5008591;28;20045;-73
2023/02/10 03:53:37;;;;;;;52.03;22.97;;;2.80;99.90;;;1.22;100.00;102571.66;5010742;28;20049;-73
2023/02/10 03:56:04;;;;;;;48.55;21.58;;;2.80;99.90;;;1.23;100.00;102567.16;5010236;28;20034;-73
2023/02/10 03:58:29;;;;;;;44.53;22.75;;;2.80;99.90;;;1.21;100.00;102575.31;5005247;28;20090;-73
2023/02/10 04:00:55;;;;;;;42.67;21.60;;;2.80;99.90;;;1.26;100.00;102570.47;5013229;28;20044;-73
2023/02/10 04:03:21;;;;;;;46.72;21.23;;;2.90;99.90;;;1.23;100.00;102570.69;5003608;28;20042;-73
2023/02/10 04:05:46;;;;;;;43.85;21.52;;;2.80;99.90;;;1.24;100.00;102571.56;4995085;28;20360;-73
2023/02/10 04:08:12;;;;;;;44.85;21.30;;;2.80;99.90;;;1.25;100.00;102575.97;5001747;28;20049;-73
2023/02/10 04:10:38;;;;;;;44.30;22.00;;;2.90;99.90;;;1.31;100.00;102585.41;5008836;28;20038;-73
2023/02/10 04:13:04;;;;;;;47.95;21.02;;;2.90;99.90;;;1.31;100.00;102580.03;5001572;28;20493;-74
2023/02/10 04:15:30;;;;;;;44.83;22.70;;;2.90;99.90;;;1.41;100.00;102575.75;5002839;28;20070;-73
2023/02/10 04:17:56;;;;;;;41.92;21.60;;;3.00;99.90;;;1.39;100.00;102583.06;5009289;28;20033;-72
2023/02/10 04:20:23;;;;;;;50.55;22.75;;;2.90;99.90;;;1.39;100.00;102570.47;5003655;28;20030;-72
2023/02/10 04:22:49;;;;;;;45.90;22.05;;;3.00;99.90;;;1.29;100.00;102562.19;4999899;28;20046;-73
2023/02/10 04:25:15;;;;;;;50.60;23.02;;;2.90;99.90;;;1.35;100.00;102568.13;5003558;28;20038;-74
2023/02/10 04:27:41;;;;;;;49.15;23.63;;;2.90;99.90;;;1.33;100.00;102562.81;5023980;28;20048;-74
2023/02/10 04:30:08;;;;;;;47.67;23.15;;;2.90;99.90;;;1.29;100.00;102570.25;5009393;28;20050;-73
2023/02/10 04:32:34;;;;;;;46.53;21.40;;;2.90;99.90;;;1.25;100.00;102566.06;5006086;28;20051;-73
2023/02/10 04:35:00;;;;;;;49.33;23.60;;;2.90;99.90;;;1.23;100.00;102565.31;5005966;28;20042;-73
2023/02/10 04:37:26;;;;;;;51.97;22.65;;;2.90;99.90;;;1.21;100.00;102555.66;5007987;28;20080;-73
2023/02/10 04:39:51;;;;;;;47.90;24.15;;;2.80;99.90;;;1.13;100.00;102557.03;5004785;28;20470;-73
2023/02/10 04:42:17;;;;;;;50.05;23.52;;;2.80;99.90;;;1.08;100.00;102558.34;5008547;28;20042;-75
2023/02/10 04:44:43;;;;;;;55.22;25.30;;;2.70;99.90;;;1.03;100.00;102568.53;5022398;28;20049;-73
2023/02/10 04:47:09;;;;;;;52.53;25.55;;;2.60;99.90;;;0.96;100.00;102563.56;5008957;28;20042;-72
2023/02/10 04:49:34;;;;;;;52.63;25.50;;;2.60;99.90;;;0.95;100.00;102559.16;5000214;28;20081;-73
2023/02/10 04:52:00;;;;;;;53.78;25.23;;;2.60;99.90;;;0.89;100.00;102558.72;5004278;28;20038;-73
2023/02/10 04:54:26;;;;;;;53.15;25.35;;;2.50;99.90;;;0.89;100.00;102553.34;4997769;28;20064;-73
2023/02/10 04:56:51;;;;;;;50.45;25.85;;;2.50;99.90;;;0.83;100.00;102555.50;4994156;28;20038;-71
2023/02/10 04:59:17;;;;;;;58.03;26.40;;;2.50;99.90;;;0.88;100.00;102563.25;5008228;28;20120;-73
2023/02/10 05:01:43;;;;;;;50.65;25.65;;;2.50;99.90;;;0.92;100.00;102567.44;5008085;28;20057;-74
2023/02/10 05:04:08;;;;;;;53.20;25.15;;;2.50;99.90;;;0.89;100.00;102567.66;4998092;28;20424;-74
2023/02/10 05:06:34;;;;;;;51.67;25.10;;;2.50;99.90;;;0.89;100.00;102573.03;5007737;28;20034;-73
2023/02/10 05:09:00;;;;;;;52.63;25.10;;;2.50;99.90;;;0.94;100.00;102578.94;5009287;28;20045;-73
2023/02/10 05:11:26;;;;;;;50.70;24.52;;;2.50;99.90;;;0.92;100.00;102564.75;5003541;28;20136;-73
2023/02/10 05:13:52;;;;;;;55.47;25.30;;;2.60;99.90;;;1.02;100.00;102577.56;5008673;28;20049;-73
2023/02/10 05:16:17;;;;;;;59.72;26.67;;;2.60;99.90;;;1.00;100.00;102572.31;5008783;28;20386;-74
2023/02/10 05:18:43;;;;;;;52.00;25.23;;;2.60;99.90;;;1.06;100.00;102581.75;5001153;28;20125;-73
2023/02/10 05:21:12;;;;;;;50.38;24.55;;;2.60;99.90;;;1.04;100.00;102579.19;5005998;28;20488;-73
2023/02/10 05:23:39;;;;;;;55.50;26.05;;;2.70;99.90;;;1.03;100.00;102571.22;5008347;28;20042;-73
2023/02/10 05:26:05;;;;;;;53.90;25.50;;;2.70;99.90;;;1.05;100.00;102571.97;5000441;28;20397;-72
2023/02/10 05:28:30;;;;;;;51.42;24.45;;;2.70;99.90;;;1.12;100.00;102567.91;5007285;28;20084;-73
2023/02/10 05:30:56;;;;;;;53.60;25.13;;;2.70;99.90;;;1.08;100.00;102571.78;5001690;28;20053;-72
2023/02/10 05:33:22;;;;;;;50.22;24.30;;;2.70;99.90;;;1.06;100.00;102571.00;5007324;28;20053;-73
2023/02/10 05:35:47;;;;;;;53.83;24.10;;;2.70;99.90;;;1.03;100.00;102579.28;5008074;28;20045;-73
2023/02/10 05:38:13;;;;;;;45.38;22.95;;;2.70;99.90;;;1.06;100.00;102579.06;5008776;28;20038;-74
2023/02/10 05:40:39;;;;;;;54.58;25.35;;;2.70;99.90;;;1.05;100.00;102582.72;5008504;28;20034;-73
2023/02/10 05:43:05;;;;;;;51.42;25.83;;;2.60;99.90;;;1.02;100.00;102586.50;5008617;28;20030;-73
2023/02/10 05:45:31;;;;;;;52.88;24.88;;;2.70;99.90;;;1.01;100.00;102590.16;5008404;28;20481;-73
2023/02/10 05:47:56;;;;;;;50.65;24.08;;;2.60;99.90;;;1.02;100.00;102591.00;5007285;28;20081;-75
2023/02/10 05:50:22;;;;;;;49.78;24.10;;;2.70;99.90;;;1.02;100.00;102597.25;5007579;28;20037;-75
2023/02/10 05:52:48;;;;;;;51.05;24.80;;;2.60;99.90;;;1.00;100.00;102594.66;5008576;28;20482;-73
2023/02/10 05:55:14;;;;;;;55.00;25.60;;;2.60;99.90;;;0.99;100.00;102592.94;5009874;28;20092;-73
2023/02/10 05:57:40;;;;;;;51.22;24.95;;;2.60;99.90;;;0.94;100.00;102578.09;5026751;28;20044;-73
2023/02/10 06:00:07;;;;;;;45.22;23.73;;;2.60;99.90;;;1.00;100.00;102589.28;5011278;28;20038;-73
2023/02/10 06:02:38;;;;;;;48.25;23.80;;;2.60;99.90;;;0.99;100.00;102602.84;5012362;28;20042;-74
2023/02/10 06:05:05;;;;;;;52.25;23.13;;;2.60;99.90;;;0.99;100.00;102597.47;5012203;28;20072;-74
2023/02/10 06:07:30;;;;;;;47.85;23.77;;;2.60;99.90;;;0.98;100.00;102601.97;5012129;28;20041;-74
2023/02/10 06:09:56;;;;;;;51.78;23.77;;;2.60;99.90;;;0.92;100.00;102607.75;5006524;28;20037;-74
2023/02/10 06:12:22;;;;;;;47.78;24.38;;;2.60;99.90;;;0.95;100.00;102615.63;5004865;28;20088;-74
2023/02/10 06:14:47;;;;;;;48.90;23.67;;;2.50;99.90;;;0.92;100.00;102615.81;5017362;28;20505;-74
2023/02/10 06:17:13;;;;;;;51.65;23.15;;;2.50;99.90;;;0.88;100.00;102616.13;5010872;28;20065;-74
2023/02/10 06:19:40;;;;;;;50.65;22.70;;;2.50;99.90;;;0.80;100.00;102616.69;5011693;28;20108;-73
2023/02/10 06:22:09;;;;;;;53.70;24.35;;;2.40;99.90;;;0.79;100.00;102617.63;4997675;28;20104;-73
2023/02/10 06:24:35;;;;;;;48.47;23.70;;;2.40;99.90;;;0.73;100.00;102618.03;5007669;28;20290;-74
2023/02/10 06:27:01;;;;;;;51.30;23.58;;;2.30;99.90;;;0.66;100.00;102626.50;5012076;28;20042;-73
2023/02/10 06:29:26;;;;;;;52.80;24.35;;;2.30;99.90;;;0.62;100.00;102633.06;5010865;28;20093;-74
2023/02/10 06:31:52;;;;;;;48.42;22.88;;;2.20;99.90;;;0.54;100.00;102625.50;5011716;28;20489;-74
2023/02/10 06:34:18;;;;;;;52.58;24.02;;;2.20;99.90;;;0.53;100.00;102630.97;5010399;28;20030;-74
2023/02/10 06:36:44;;;;;;;50.90;25.02;;;2.10;99.90;;;0.50;100.00;102633.88;5011585;28;20057;-74
2023/02/10 06:39:09;;;;;;;54.85;24.80;;;2.10;99.90;;;0.43;100.00;102650.38;5012310;28;20088;-74
2023/02/10 06:41:35;;;;;;;60.72;26.17;;;2.00;99.90;;;0.34;100.00;102634.00;5012164;28;20037;-74
2023/02/10 06:44:01;;;;;;;56.72;24.88;;;2.00;99.90;;;0.34;100.00;102655.50;5011314;28;20034;-74
2023/02/10 06:46:27;;;;;;;52.28;24.00;;;1.90;99.90;;;0.32;100.00;102657.44;5011475;28;20945;-74
2023/02/10 06:48:53;;;;;;;57.65;25.90;;;1.90;99.90;;;0.30;100.00;102656.66;5011651;28;22061;-74
2023/02/10 06:51:19;;;;;;;60.80;27.15;;;1.90;99.90;;;0.27;100.00;102661.28;5011369;28;20046;-74
2023/02/10 06:53:45;;;;;;;60.92;26.38;;;1.90;99.90;;;0.23;100.00;102664.25;5011336;28;20042;-74
2023/02/10 06:56:12;;;;;;;66.20;26.38;;;1.80;99.90;;;0.21;100.00;102656.31;5006292;28;20035;-74
2023/02/10 06:58:38;;;;;;;54.43;27.23;;;1.80;99.90;;;0.20;100.00;102657.28;4991400;28;20039;-74
2023/02/10 07:01:10;;;;;;;60.67;26.75;;;1.80;99.90;;;0.23;100.00;102658.88;5008903;28;20501;-74
2023/02/10 07:03:36;;;;;;;56.50;26.52;;;1.90;99.90;;;0.27;100.00;102655.06;5010993;28;20038;-74
2023/02/10 07:06:03;;;;;;;59.85;27.67;;;1.90;99.90;;;0.32;100.00;102657.44;5011212;28;20497;-74
2023/02/10 07:08:29;;;;;;;58.30;26.73;;;1.90;99.90;;;0.30;100.00;102654.84;5011157;28;20081;-74
2023/02/10 07:10:55;;;;;;;63.88;27.08;;;2.00;99.90;;;0.34;100.00;102648.31;5010978;28;20097;-74
2023/02/10 07:13:20;;;;;;;58.45;27.48;;;2.00;99.90;;;0.36;100.00;102656.25;5006269;28;20030;-74
2023/02/10 07:15:46;;;;;;;67.90;27.15;;;2.00;99.90;;;0.38;100.00;102654.34;5006362;28;20034;-74
2023/02/10 07:18:12;;;;;;;57.60;26.95;;;2.00;99.90;;;0.39;100.00;102653.38;5010471;28;20498;-74
2023/02/10 07:20:38;;;;;;;62.47;28.23;;;2.00;99.90;;;0.47;100.00;102660.94;5003502;28;20042;-74
2023/02/10 07:23:04;;;;;;;64.80;27.27;;;2.10;99.90;;;0.54;100.00;102657.75;5015965;28;20125;-74
2023/02/10 07:25:29;;;;;;;58.17;26.52;;;2.20;99.90;;;0.61;100.00;102650.16;5002213;28;20038;-74
2023/02/10 07:27:55;;;;;;;57.45;26.33;;;2.20;99.90;;;0.66;100.00;102656.06;5011113;28;20080;-74
2023/02/10 07:30:21;;;;;;;62.28;26.92;;;2.30;99.90;;;0.70;100.00;102654.91;5009893;28;20033;-74
2023/02/10 07:32:47;;;;;;;57.25;26.75;;;2.30;99.90;;;0.77;100.00;102651.78;5010122;28;20062;-73
2023/02/10 07:35:12;;;;;;;58.00;24.55;;;2.40;99.90;;;0.79;100.00;102648.06;5011535;28;20490;-73
2023/02/10 07:37:39;;;;;;;62.00;25.23;;;2.40;99.90;;;0.82;100.00;102655.06;5004377;28;20529;-73
2023/02/10 07:40:07;;;;;;;61.58;27.20;;;2.50;99.90;;;0.85;100.00;102665.59;5004461;28;20041;-74
2023/02/10 07:42:34;;;;;;;52.42;23.67;;;2.40;99.90;;;0.92;100.00;102660.66;5006509;28;20129;-73
2023/02/10 07:45:14;;;;;;;62.17;25.92;;;2.50;99.90;;;0.94;100.00;102667.66;5004735;28;20042;-73
2023/02/10 07:47:39;;;;;;;58.47;25.33;;;2.60;99.90;;;0.96;100.00;102672.94;5004315;28;20054;-74
2023/02/10 07:50:05;;;;;;;57.47;27.17;;;2.60;99.90;;;1.03;100.00;102676.06;5010014;28;20034;-73
2023/02/10 07:52:31;;;;;;;65.55;26.80;;;2.60;99.90;;;1.07;100.00;102675.75;5008118;28;20429;-74
2023/02/10 07:54:58;;;;;;;60.72;25.42;;;2.70;99.90;;;1.07;100.00;102672.22;5006861;28;20049;-75
2023/02/10 07:57:23;;;;;;;51.03;24.88;;;2.70;99.90;;;1.13;100.00;102680.69;5007227;28;20468;-75
2023/02/10 07:59:49;;;;;;;60.17;26.52;;;2.70;99.90;;;1.22;100.00;102681.91;5010282;28;20065;-75
2023/02/10 08:02:15;;;;;;;55.70;25.15;;;2.80;99.90;;;1.31;100.00;102676.84;5003249;28;20092;-75
2023/02/10 08:04:41;;;;;;;57.83;26.33;;;2.90;99.90;;;1.43;100.00;102690.31;5007071;28;20117;-75
2023/02/10 08:07:06;;;;;;;58.05;25.90;;;3.00;99.90;;;1.47;100.00;102671.28;4999600;28;20116;-74
2023/02/10 08:09:32;;;;;;;58.65;26.23;;;3.10;99.90;;;1.58;100.00;102676.78;5003777;28;20046;-74
2023/02/10 08:11:58;;;;;;;57.15;23.98;;;3.20;99.90;;;1.64;100.00;102686.25;5006346;28;20030;-74
2023/02/10 08:14:24;;;;;;;55.35;25.40;;;3.30;99.90;;;1.66;100.00;102687.84;5009058;28;20049;-74
2023/02/10 08:16:49;;;;;;;48.33;23.80;;;3.30;99.90;;;1.68;100.00;102685.06;5003927;28;20049;-74
2023/02/10 08:19:15;;;;;;;56.60;26.33;;;3.30;99.90;;;1.74;100.00;102692.69;5004565;28;20042;-74
2023/02/10 08:21:41;;;;;;;57.05;24.98;;;3.30;99.90;;;1.80;100.00;102692.25;5000400;28;20052;-75
2023/02/10 08:24:07;;;;;;;53.78;24.75;;;3.40;99.90;;;1.90;100.00;102691.63;5023104;28;20072;-74
2023/02/10 08:26:34;;;;;;;52.42;24.15;;;3.50;99.90;;;1.92;100.00;102692.38;4994969;28;20088;-74
2023/02/10 08:29:00;;;;;;;52.42;24.85;;;3.50;99.90;;;2.00;100.00;102696.25;4999644;28;20041;-74
2023/02/10 08:31:26;;;;;;;58.92;25.13;;;3.60;99.90;;;2.07;100.00;102702.03;5023803;28;20034;-74
2023/02/10 08:33:52;;;;;;;55.55;26.02;;;3.60;99.90;;;2.19;100.00;102704.81;5010386;28;20172;-74
2023/02/10 08:36:21;;;;;;;61.17;25.63;;;3.70;99.90;;;2.28;100.00;102702.34;5011004;28;20113;-74
2023/02/10 08:38:48;;;;;;;54.70;25.33;;;3.80;99.90;;;2.35;100.00;102694.63;5009697;28;20045;-74
2023/02/10 08:41:15;;;;;;;52.53;24.40;;;3.90;99.90;;;2.43;100.00;102702.16;5009580;28;20032;-74
2023/02/10 08:43:41;;;;;;;59.38;26.15;;;4.00;99.90;;;2.58;100.00;102705.56;5005354;28;20034;-73
2023/02/10 08:46:07;;;;;;;53.67;25.65;;;4.10;99.90;;;2.59;100.00;102712.66;5008030;28;20057;-73
2023/02/10 08:48:34;;;;;;;55.78;26.75;;;4.20;99.90;;;2.70;100.00;102709.19;5000869;28;20034;-73
2023/02/10 08:51:05;;;;;;;56.30;27.48;;;4.30;99.90;;;2.86;100.00;102709.78;4992969;28;20041;-73
2023/02/10 08:53:31;;;;;;;54.97;26.85;;;4.40;99.90;;;2.97;100.00;102717.06;5008154;28;20184;-73
2023/02/10 08:56:05;;;;;;;64.50;28.52;;;4.50;99.90;;;3.02;100.00;102719.38;4993515;28;20482;-73
2023/02/10 08:58:31;;;;;;;57.95;26.63;;;4.60;99.90;;;3.17;100.00;102718.22;5004936;28;20053;-73
2023/02/10 09:00:57;;;;;;;62.47;28.20;;;4.70;99.90;;;3.09;100.00;102723.34;5003961;28;20042;-74
2023/02/10 09:03:26;;;;;;;60.00;25.85;;;4.80;99.90;;;3.28;100.00;102713.84;5005849;28;20401;-73
2023/02/10 09:05:52;;;;;;;57.90;27.15;;;4.90;99.90;;;3.38;100.00;102724.78;4995794;28;20128;-72
2023/02/10 09:08:21;;;;;;;60.67;27.38;;;5.00;99.90;;;3.42;100.00;102716.34;4998758;28;20157;-73
2023/02/10 09:10:47;;;;;;;61.38;28.10;;;5.10;99.90;;;3.80;100.00;102717.03;5003165;28;20054;-73
2023/02/10 09:13:13;;;;;;;61.78;28.65;;;5.40;99.90;;;3.74;100.00;102714.81;5003927;28;20029;-74
2023/02/10 09:15:42;;;;;;;58.88;28.58;;;5.30;99.90;;;3.79;100.00;102722.53;5006348;28;20049;-73
2023/02/10 09:18:09;;;;;;;53.75;28.83;;;5.40;99.90;;;3.68;100.00;102721.56;4989830;28;20038;-73
2023/02/10 09:20:35;;;;;;;57.70;27.25;;;5.30;99.90;;;3.46;100.00;102716.97;4996657;28;20033;-73
2023/02/10 09:23:02;;;;;;;57.08;28.40;;;5.30;99.90;;;3.27;100.00;102714.81;5004017;28;20068;-74
2023/02/10 09:25:28;;;;;;;62.65;30.38;;;5.00;99.90;;;3.26;100.00;102724.78;5000361;28;20038;-74
2023/02/10 09:27:57;;;;;;;64.55;28.92;;;5.00;99.90;;;3.37;100.00;102726.66;5006233;28;20041;-74
2023/02/10 09:30:24;;;;;;;64.88;28.20;;;5.00;99.90;;;3.48;100.00;102725.81;5005936;28;20037;-74
2023/02/10 09:32:50;;;;;;;59.80;28.67;;;5.10;99.90;;;3.57;100.00;102721.53;5005465;28;20046;-74
2023/02/10 09:35:16;;;;;;;59.22;29.38;;;5.20;99.90;;;3.55;100.00;102726.19;5004294;28;20045;-74
2023/02/10 09:37:42;;;;;;;62.28;28.52;;;5.20;99.90;;;3.61;100.00;102736.53;5005032;28;20042;-75
2023/02/10 09:40:26;;;;;;;63.35;27.42;;;5.20;99.90;;;3.34;100.00;102724.19;5019810;28;20112;-75
2023/02/10 09:43:13;;;;;;;62.88;28.52;;;5.10;99.90;;;3.37;100.00;102732.03;5003444;28;20479;-74
2023/02/10 09:45:40;;;;;;;64.43;29.02;;;5.00;99.90;;;3.15;100.00;102746.28;4994708;28;20585;-74
2023/02/10 09:48:09;;;;;;;64.78;30.02;;;4.80;99.90;;;3.15;100.00;102740.91;5015403;28;20150;-73
2023/02/10 09:51:11;;;;;;;70.22;31.33;;;4.80;99.90;;;3.44;100.00;102751.28;4992321;28;20043;-73
2023/02/10 09:53:37;;;;;;;65.75;28.98;;;5.00;99.90;;;3.82;100.00;102744.78;5004067;28;20048;-74
2023/02/10 09:56:17;;;;;;;68.28;29.23;;;5.30;99.90;;;4.08;100.00;102738.28;5020556;28;20034;-74
2023/02/10 09:58:54;;;;;;;69.43;32.08;;;5.70;99.90;;;4.21;100.00;102744.44;5005994;28;20133;-74
2023/02/10 10:01:49;;;;;;;61.65;28.35;;;5.90;99.90;;;4.43;100.00;102740.84;5005967;28;20030;-74
2023/02/10 10:04:18;;;;;;;64.10;30.08;;;6.10;99.90;;;4.35;100.00;102735.22;5001244;28;20057;-74
2023/02/10 10:07:17;;;;;;;66.18;29.92;;;6.10;99.90;;;4.38;100.00;102736.81;5000779;28;20046;-74
2023/02/10 10:09:51;;;;;;;62.92;28.63;;;6.10;99.90;;;4.34;100.00;102735.31;4994711;28;20133;-74
2023/02/10 10:12:19;;;;;;;69.68;29.08;;;6.00;99.90;;;4.10;100.00;102747.09;4994566;28;20605;-74
2023/02/10 10:14:46;;;;;;;64.82;29.60;;;5.90;99.90;;;4.15;100.00;102734.13;5005808;28;20045;-74
2023/02/10 10:17:38;;;;;;;65.68;29.83;;;5.80;99.90;;;4.20;100.00;102736.44;5005182;28;20038;-74
2023/02/10 10:20:31;;;;;;;63.92;29.05;;;5.80;99.90;;;4.26;100.00;102752.19;4992133;28;20066;-73